This is the latest recevied weather packets stored in our database for station/object DN1US-13. If no packets are shown the sender has not sent any weather packets the latest 10 day(s).
| Time | Temp. | Humidity | Pressure | Rain* | Wind** | Luminosity | Snow |
|---|---|---|---|---|---|---|---|
| 1778080712 | 13.89° C | 10% | - | 0 mm | - | - | - |
| 1778080408 | 13.89° C | 10% | - | 0 mm | - | - | - |
| 1778080103 | 14.44° C | 10% | - | 0 mm | - | - | - |
| 1778079800 | 15° C | 10% | - | 0 mm | - | - | - |
| 1778079192 | 16.11° C | 10% | - | 0 mm | - | - | - |
| 1778078888 | 18.89° C | 96% | 981.6 hPa | 0 mm | - | - | - |
| 1778078584 | 18.33° C | 98% | 981.5 hPa | 0 mm | - | - | - |
| 1778078280 | 18.89° C | 95% | 981.5 hPa | 0 mm | - | - | - |
| 1778077976 | 18.33° C | 10% | - | 0 mm | - | - | - |
| 1778077672 | 18.89° C | 92% | 981.6 hPa | 0 mm | - | - | - |
| 1778077368 | 18.89° C | 97% | 981.6 hPa | 0 mm | - | - | - |
| 1778077064 | 18.33° C | 95% | 981.5 hPa | 0 mm | - | - | - |
| 1778076760 | 18.89° C | 97% | 981.5 hPa | 0 mm | - | - | - |
| 1778076456 | 18.89° C | 90% | 981.4 hPa | 0 mm | - | - | - |
| 1778076152 | 19.44° C | 92% | 981.4 hPa | 0 mm | - | - | - |
| 1778075848 | 18.33° C | 95% | 981.5 hPa | 0 mm | - | - | - |
| 1778075544 | 20° C | 87% | 981.5 hPa | 0 mm | - | - | - |
| 1778075240 | 19.44° C | 94% | 981.5 hPa | 0 mm | - | - | - |
| 1778074936 | 18.89° C | 96% | 981.6 hPa | 0 mm | - | - | - |
| 1778074632 | 18.89° C | 98% | 981.7 hPa | 0 mm | - | - | - |
| 1778074328 | 18.33° C | 10% | - | 0 mm | - | - | - |
| 1778074024 | 18.33° C | 10% | - | 0 mm | - | - | - |
| 1778073720 | 17.78° C | 99% | 981.7 hPa | 0 mm | - | - | - |
| 1778073416 | 18.89° C | 97% | 981.7 hPa | 0 mm | - | - | - |
| 1778073112 | 17.78° C | 10% | - | 0 mm | - | - | - |
* Rain latest hour (hover to see other rain measurements)
** Current wind speed in m/s (hover to see current wind gust speed)